Mount Solon, Virginia
Current Conditions -  °F | °C
As of 2:15 PM on Friday 21 Nov 2014 (Local Time) from KVBW Reporting Station
Clear Clear  
Wind Chill: 30°   Ceiling: Unl
Heat Index: 35°   Visibility: 10mi
Dew Point:   Wind: 6mph
Humidity: 26%   Direction: 90°E
Pressure: 30.4"   Gusts: NA
Location:  38.35°N, 79.08°W
Report Text: KVBW 211915Z AUTO 09005KT 10SM CLR 02/M16 A3040 RMK AO2 T00181159
Loading
Personal Weather Stations






























Interactive Weather Map New forecast layout! Learn more

10-Day Weather Forecast

Advertisements
Track Severe Weather on mobile